Puebla de la Calzada, Spain
Current Conditions -  °F | °C
As of 2:00 PM on Sunday 23 Nov 2014 (Local Time) from LEBZ Reporting Station
Scattered Clouds Scattered Clouds  
Wind Chill: 68°   Ceiling: Unl
Heat Index: 68°   Visibility: 6mi
Dew Point: 59°   Wind: 2mph
Humidity: 73%   Direction: NA
Pressure: 29.8"   Gusts: NA
Location:  38.89°N, 6.63°W
Report Text: LEBZ 231300Z VRB02KT 9999 SCT022 20/15 Q1009
Loading
Personal Weather Stations






























Interactive Weather Map New forecast layout! Learn more

10-Day Weather Forecast

Advertisements
Track Severe Weather on mobile